Thurston, Nebraska
Current Conditions -  °F | °C
As of 1:15 PM on Monday 20 Oct 2014 (Local Time) from KLCG Reporting Station
Clear Clear  
Wind Chill: 69°   Ceiling: Unl
Heat Index: 69°   Visibility: 10mi
Dew Point: 37°   Wind: 3mph
Humidity: 30%   Direction: 310°NW
Pressure: 30.1"   Gusts: NA
Location:  42.18°N, 96.7°W
Report Text: KLCG 201815Z AUTO 31003KT 10SM CLR 21/03 A3010 RMK AO2 T02080026
Loading
Personal Weather Stations






























Interactive Weather Map
Tropical Storm Tracking
New forecast layout! Learn more

10-Day Weather Forecast

Advertisements
Track Severe Weather on mobile